sensor_id;sensor_type;location;lat;lon;timestamp;P1;durP1;ratioP1;P2;durP2;ratioP2
12597;SDS011;6364;53.590;9.956;2023-03-23T00:00:42;14.63;;;10.63;;
12597;SDS011;6364;53.590;9.956;2023-03-23T00:03:08;17.48;;;10.65;;
12597;SDS011;6364;53.590;9.956;2023-03-23T00:05:33;14.75;;;10.65;;
12597;SDS011;6364;53.590;9.956;2023-03-23T00:08:01;17.05;;;10.60;;
12597;SDS011;6364;53.590;9.956;2023-03-23T00:10:28;18.67;;;11.77;;
12597;SDS011;6364;53.590;9.956;2023-03-23T00:12:58;19.30;;;11.57;;
12597;SDS011;6364;53.590;9.956;2023-03-23T00:15:27;20.40;;;12.52;;
12597;SDS011;6364;53.590;9.956;2023-03-23T00:17:55;19.40;;;13.43;;
12597;SDS011;6364;53.590;9.956;2023-03-23T00:20:27;20.75;;;13.50;;
12597;SDS011;6364;53.590;9.956;2023-03-23T00:22:54;20.63;;;13.15;;
12597;SDS011;6364;53.590;9.956;2023-03-23T00:25:24;22.70;;;14.38;;
12597;SDS011;6364;53.590;9.956;2023-03-23T00:27:49;21.45;;;14.45;;
12597;SDS011;6364;53.590;9.956;2023-03-23T00:30:15;21.25;;;14.55;;
12597;SDS011;6364;53.590;9.956;2023-03-23T00:32:41;25.42;;;15.63;;
12597;SDS011;6364;53.590;9.956;2023-03-23T00:35:06;22.70;;;15.90;;
12597;SDS011;6364;53.590;9.956;2023-03-23T00:37:32;24.40;;;16.98;;
12597;SDS011;6364;53.590;9.956;2023-03-23T00:39:57;27.83;;;18.73;;
12597;SDS011;6364;53.590;9.956;2023-03-23T00:42:25;24.75;;;18.08;;
12597;SDS011;6364;53.590;9.956;2023-03-23T00:44:51;25.35;;;17.98;;
12597;SDS011;6364;53.590;9.956;2023-03-23T00:47:26;26.05;;;18.80;;
12597;SDS011;6364;53.590;9.956;2023-03-23T00:49:51;24.85;;;18.83;;
12597;SDS011;6364;53.590;9.956;2023-03-23T00:52:17;29.38;;;20.17;;
12597;SDS011;6364;53.590;9.956;2023-03-23T00:54:43;29.10;;;19.88;;
12597;SDS011;6364;53.590;9.956;2023-03-23T00:57:08;29.20;;;19.83;;
12597;SDS011;6364;53.590;9.956;2023-03-23T00:59:35;25.40;;;18.52;;
12597;SDS011;6364;53.590;9.956;2023-03-23T01:02:00;25.75;;;18.92;;
12597;SDS011;6364;53.590;9.956;2023-03-23T01:04:25;27.52;;;18.90;;
12597;SDS011;6364;53.590;9.956;2023-03-23T01:06:53;25.85;;;19.00;;
12597;SDS011;6364;53.590;9.956;2023-03-23T01:09:19;26.15;;;18.98;;
12597;SDS011;6364;53.590;9.956;2023-03-23T01:11:46;23.77;;;17.88;;
12597;SDS011;6364;53.590;9.956;2023-03-23T01:14:13;24.33;;;17.17;;
12597;SDS011;6364;53.590;9.956;2023-03-23T01:16:40;28.90;;;18.42;;
12597;SDS011;6364;53.590;9.956;2023-03-23T01:19:05;26.55;;;18.30;;
12597;SDS011;6364;53.590;9.956;2023-03-23T01:21:31;27.10;;;18.88;;
12597;SDS011;6364;53.590;9.956;2023-03-23T01:23:56;24.95;;;18.13;;
12597;SDS011;6364;53.590;9.956;2023-03-23T01:26:22;27.40;;;18.75;;
12597;SDS011;6364;53.590;9.956;2023-03-23T01:28:49;29.33;;;20.05;;
12597;SDS011;6364;53.590;9.956;2023-03-23T01:31:15;31.98;;;19.80;;
12597;SDS011;6364;53.590;9.956;2023-03-23T01:33:42;30.23;;;19.75;;
12597;SDS011;6364;53.590;9.956;2023-03-23T01:36:12;30.52;;;20.95;;
12597;SDS011;6364;53.590;9.956;2023-03-23T01:38:39;28.15;;;20.80;;
12597;SDS011;6364;53.590;9.956;2023-03-23T01:41:05;31.92;;;20.95;;
12597;SDS011;6364;53.590;9.956;2023-03-23T01:43:31;34.20;;;21.85;;
12597;SDS011;6364;53.590;9.956;2023-03-23T01:45:56;31.15;;;22.25;;
12597;SDS011;6364;53.590;9.956;2023-03-23T01:48:26;30.40;;;21.35;;
12597;SDS011;6364;53.590;9.956;2023-03-23T01:53:42;34.05;;;21.73;;
12597;SDS011;6364;53.590;9.956;2023-03-23T01:56:11;31.33;;;22.58;;
12597;SDS011;6364;53.590;9.956;2023-03-23T01:58:38;35.00;;;21.85;;
12597;SDS011;6364;53.590;9.956;2023-03-23T02:01:06;31.33;;;22.05;;
12597;SDS011;6364;53.590;9.956;2023-03-23T02:03:36;36.10;;;22.40;;
12597;SDS011;6364;53.590;9.956;2023-03-23T02:06:02;31.27;;;21.98;;
12597;SDS011;6364;53.590;9.956;2023-03-23T02:08:28;31.90;;;20.00;;
12597;SDS011;6364;53.590;9.956;2023-03-23T02:10:54;37.70;;;22.08;;
12597;SDS011;6364;53.590;9.956;2023-03-23T02:13:20;34.42;;;22.77;;
12597;SDS011;6364;53.590;9.956;2023-03-23T02:18:38;30.92;;;20.27;;
12597;SDS011;6364;53.590;9.956;2023-03-23T02:29:36;25.90;;;18.55;;
12597;SDS011;6364;53.590;9.956;2023-03-23T02:32:31;28.00;;;18.90;;
12597;SDS011;6364;53.590;9.956;2023-03-23T02:35:03;26.70;;;17.15;;
12597;SDS011;6364;53.590;9.956;2023-03-23T02:37:39;32.35;;;19.92;;
12597;SDS011;6364;53.590;9.956;2023-03-23T02:40:18;27.40;;;18.27;;
12597;SDS011;6364;53.590;9.956;2023-03-23T02:42:47;27.52;;;19.45;;
12597;SDS011;6364;53.590;9.956;2023-03-23T02:45:15;30.80;;;19.35;;
12597;SDS011;6364;53.590;9.956;2023-03-23T02:47:40;27.50;;;19.55;;
12597;SDS011;6364;53.590;9.956;2023-03-23T02:50:07;29.80;;;19.55;;
12597;SDS011;6364;53.590;9.956;2023-03-23T02:52:35;29.52;;;19.67;;
12597;SDS011;6364;53.590;9.956;2023-03-23T02:55:03;27.30;;;19.77;;
12597;SDS011;6364;53.590;9.956;2023-03-23T02:57:29;26.95;;;19.13;;
12597;SDS011;6364;53.590;9.956;2023-03-23T02:59:55;29.38;;;19.83;;
12597;SDS011;6364;53.590;9.956;2023-03-23T03:02:21;25.45;;;18.48;;
12597;SDS011;6364;53.590;9.956;2023-03-23T03:10:24;25.52;;;19.17;;
12597;SDS011;6364;53.590;9.956;2023-03-23T03:15:25;27.63;;;20.75;;
12597;SDS011;6364;53.590;9.956;2023-03-23T03:17:59;32.05;;;20.75;;
12597;SDS011;6364;53.590;9.956;2023-03-23T03:20:28;29.35;;;20.30;;
12597;SDS011;6364;53.590;9.956;2023-03-23T03:22:54;33.65;;;22.08;;
12597;SDS011;6364;53.590;9.956;2023-03-23T03:25:21;31.08;;;21.33;;
12597;SDS011;6364;53.590;9.956;2023-03-23T03:27:48;32.13;;;22.45;;
12597;SDS011;6364;53.590;9.956;2023-03-23T03:30:17;35.78;;;22.90;;
12597;SDS011;6364;53.590;9.956;2023-03-23T03:32:49;31.77;;;22.73;;
12597;SDS011;6364;53.590;9.956;2023-03-23T03:35:18;33.25;;;21.70;;
12597;SDS011;6364;53.590;9.956;2023-03-23T03:37:44;35.63;;;23.13;;
12597;SDS011;6364;53.590;9.956;2023-03-23T03:40:11;32.28;;;22.27;;
12597;SDS011;6364;53.590;9.956;2023-03-23T03:42:39;33.70;;;23.42;;
12597;SDS011;6364;53.590;9.956;2023-03-23T03:45:05;31.65;;;22.65;;
12597;SDS011;6364;53.590;9.956;2023-03-23T03:47:32;35.25;;;22.42;;
12597;SDS011;6364;53.590;9.956;2023-03-23T03:49:58;31.65;;;21.60;;
12597;SDS011;6364;53.590;9.956;2023-03-23T03:52:23;30.77;;;21.58;;
12597;SDS011;6364;53.590;9.956;2023-03-23T03:54:48;28.40;;;21.08;;
12597;SDS011;6364;53.590;9.956;2023-03-23T03:57:14;32.42;;;21.65;;
12597;SDS011;6364;53.590;9.956;2023-03-23T03:59:39;30.45;;;20.63;;
12597;SDS011;6364;53.590;9.956;2023-03-23T04:02:05;32.17;;;21.33;;
12597;SDS011;6364;53.590;9.956;2023-03-23T04:04:30;27.95;;;20.30;;
12597;SDS011;6364;53.590;9.956;2023-03-23T04:06:55;26.40;;;18.58;;
12597;SDS011;6364;53.590;9.956;2023-03-23T04:09:22;26.48;;;19.38;;
12597;SDS011;6364;53.590;9.956;2023-03-23T04:11:47;27.65;;;19.13;;
12597;SDS011;6364;53.590;9.956;2023-03-23T04:14:13;28.63;;;19.65;;
12597;SDS011;6364;53.590;9.956;2023-03-23T04:16:38;24.92;;;18.38;;
12597;SDS011;6364;53.590;9.956;2023-03-23T04:19:03;26.67;;;18.63;;
12597;SDS011;6364;53.590;9.956;2023-03-23T04:21:29;23.65;;;18.50;;
12597;SDS011;6364;53.590;9.956;2023-03-23T04:23:57;24.70;;;18.10;;
12597;SDS011;6364;53.590;9.956;2023-03-23T04:26:26;25.23;;;17.00;;
12597;SDS011;6364;53.590;9.956;2023-03-23T04:28:53;24.58;;;17.83;;
12597;SDS011;6364;53.590;9.956;2023-03-23T04:31:20;28.17;;;17.83;;
12597;SDS011;6364;53.590;9.956;2023-03-23T04:33:45;24.70;;;17.30;;
12597;SDS011;6364;53.590;9.956;2023-03-23T04:36:11;24.67;;;17.65;;
12597;SDS011;6364;53.590;9.956;2023-03-23T04:38:40;23.30;;;17.10;;
12597;SDS011;6364;53.590;9.956;2023-03-23T04:41:06;24.27;;;18.00;;
12597;SDS011;6364;53.590;9.956;2023-03-23T04:43:31;22.85;;;16.88;;
12597;SDS011;6364;53.590;9.956;2023-03-23T04:45:58;22.80;;;16.98;;
12597;SDS011;6364;53.590;9.956;2023-03-23T04:48:26;21.30;;;16.90;;
12597;SDS011;6364;53.590;9.956;2023-03-23T04:50:52;21.33;;;17.27;;
12597;SDS011;6364;53.590;9.956;2023-03-23T04:53:18;21.83;;;17.00;;
12597;SDS011;6364;53.590;9.956;2023-03-23T04:55:43;24.02;;;17.95;;
12597;SDS011;6364;53.590;9.956;2023-03-23T04:58:09;26.83;;;17.80;;
12597;SDS011;6364;53.590;9.956;2023-03-23T05:00:37;21.52;;;16.58;;
12597;SDS011;6364;53.590;9.956;2023-03-23T05:03:02;24.75;;;17.52;;
12597;SDS011;6364;53.590;9.956;2023-03-23T05:05:28;23.90;;;17.42;;
12597;SDS011;6364;53.590;9.956;2023-03-23T05:07:56;24.70;;;17.27;;
12597;SDS011;6364;53.590;9.956;2023-03-23T05:10:22;22.48;;;17.13;;
12597;SDS011;6364;53.590;9.956;2023-03-23T05:12:48;24.35;;;17.33;;
12597;SDS011;6364;53.590;9.956;2023-03-23T05:15:14;21.17;;;16.38;;
12597;SDS011;6364;53.590;9.956;2023-03-23T05:17:40;23.02;;;16.38;;
12597;SDS011;6364;53.590;9.956;2023-03-23T05:20:09;23.80;;;16.23;;
12597;SDS011;6364;53.590;9.956;2023-03-23T05:22:36;24.45;;;16.33;;
12597;SDS011;6364;53.590;9.956;2023-03-23T05:25:03;18.73;;;15.52;;
12597;SDS011;6364;53.590;9.956;2023-03-23T05:27:29;19.50;;;15.05;;
12597;SDS011;6364;53.590;9.956;2023-03-23T05:29:55;20.60;;;15.63;;
12597;SDS011;6364;53.590;9.956;2023-03-23T05:32:23;24.30;;;14.55;;
12597;SDS011;6364;53.590;9.956;2023-03-23T05:34:53;20.35;;;15.23;;
12597;SDS011;6364;53.590;9.956;2023-03-23T05:37:19;19.42;;;14.70;;
12597;SDS011;6364;53.590;9.956;2023-03-23T05:39:45;19.98;;;13.70;;
12597;SDS011;6364;53.590;9.956;2023-03-23T05:42:10;22.88;;;14.60;;
12597;SDS011;6364;53.590;9.956;2023-03-23T05:44:35;18.17;;;14.02;;
12597;SDS011;6364;53.590;9.956;2023-03-23T05:47:01;17.45;;;12.63;;
12597;SDS011;6364;53.590;9.956;2023-03-23T05:49:26;20.88;;;13.45;;
12597;SDS011;6364;53.590;9.956;2023-03-23T05:51:52;17.98;;;12.93;;
12597;SDS011;6364;53.590;9.956;2023-03-23T05:54:17;19.50;;;12.93;;
12597;SDS011;6364;53.590;9.956;2023-03-23T05:56:43;20.38;;;12.60;;
12597;SDS011;6364;53.590;9.956;2023-03-23T05:59:08;17.15;;;12.35;;
12597;SDS011;6364;53.590;9.956;2023-03-23T06:01:35;19.50;;;12.15;;
12597;SDS011;6364;53.590;9.956;2023-03-23T06:04:01;15.02;;;11.05;;
12597;SDS011;6364;53.590;9.956;2023-03-23T06:06:28;15.57;;;11.55;;
12597;SDS011;6364;53.590;9.956;2023-03-23T06:08:54;15.07;;;11.05;;
12597;SDS011;6364;53.590;9.956;2023-03-23T06:11:20;16.25;;;11.90;;
12597;SDS011;6364;53.590;9.956;2023-03-23T06:13:45;15.68;;;10.77;;
12597;SDS011;6364;53.590;9.956;2023-03-23T06:16:10;15.88;;;11.45;;
12597;SDS011;6364;53.590;9.956;2023-03-23T06:18:36;16.58;;;10.45;;
12597;SDS011;6364;53.590;9.956;2023-03-23T06:21:05;14.07;;;10.57;;
12597;SDS011;6364;53.590;9.956;2023-03-23T06:23:31;15.70;;;10.48;;
12597;SDS011;6364;53.590;9.956;2023-03-23T06:25:57;14.20;;;9.75;;
12597;SDS011;6364;53.590;9.956;2023-03-23T06:28:24;13.55;;;9.00;;
12597;SDS011;6364;53.590;9.956;2023-03-23T06:30:50;12.23;;;7.45;;
12597;SDS011;6364;53.590;9.956;2023-03-23T06:33:15;13.27;;;8.82;;
12597;SDS011;6364;53.590;9.956;2023-03-23T06:35:42;10.95;;;8.18;;
12597;SDS011;6364;53.590;9.956;2023-03-23T06:38:08;10.95;;;8.25;;
12597;SDS011;6364;53.590;9.956;2023-03-23T06:40:33;12.68;;;8.25;;
12597;SDS011;6364;53.590;9.956;2023-03-23T06:43:00;12.40;;;7.35;;
12597;SDS011;6364;53.590;9.956;2023-03-23T06:45:26;13.80;;;8.35;;
12597;SDS011;6364;53.590;9.956;2023-03-23T06:47:51;11.52;;;7.18;;
12597;SDS011;6364;53.590;9.956;2023-03-23T06:50:17;10.50;;;7.15;;
12597;SDS011;6364;53.590;9.956;2023-03-23T06:52:46;9.52;;;7.43;;
12597;SDS011;6364;53.590;9.956;2023-03-23T06:55:12;9.85;;;6.88;;
12597;SDS011;6364;53.590;9.956;2023-03-23T06:57:38;9.70;;;6.28;;
12597;SDS011;6364;53.590;9.956;2023-03-23T07:00:03;10.63;;;6.65;;
12597;SDS011;6364;53.590;9.956;2023-03-23T07:02:31;9.15;;;5.97;;
12597;SDS011;6364;53.590;9.956;2023-03-23T07:04:56;7.95;;;6.00;;
12597;SDS011;6364;53.590;9.956;2023-03-23T07:07:22;8.98;;;5.95;;
12597;SDS011;6364;53.590;9.956;2023-03-23T07:09:47;9.57;;;5.85;;
12597;SDS011;6364;53.590;9.956;2023-03-23T07:12:13;8.13;;;6.00;;
12597;SDS011;6364;53.590;9.956;2023-03-23T07:14:39;9.85;;;6.03;;
12597;SDS011;6364;53.590;9.956;2023-03-23T07:17:04;7.72;;;5.57;;
12597;SDS011;6364;53.590;9.956;2023-03-23T07:19:30;8.98;;;5.70;;
12597;SDS011;6364;53.590;9.956;2023-03-23T07:21:56;9.85;;;5.40;;
12597;SDS011;6364;53.590;9.956;2023-03-23T07:24:22;8.45;;;5.28;;
12597;SDS011;6364;53.590;9.956;2023-03-23T07:26:47;12.93;;;5.80;;
12597;SDS011;6364;53.590;9.956;2023-03-23T07:29:12;10.75;;;5.20;;
12597;SDS011;6364;53.590;9.956;2023-03-23T07:31:38;7.72;;;5.25;;
12597;SDS011;6364;53.590;9.956;2023-03-23T07:34:03;5.35;;;4.47;;
12597;SDS011;6364;53.590;9.956;2023-03-23T07:36:29;7.38;;;5.00;;
12597;SDS011;6364;53.590;9.956;2023-03-23T07:38:54;11.40;;;5.07;;
12597;SDS011;6364;53.590;9.956;2023-03-23T07:41:20;6.72;;;4.63;;
12597;SDS011;6364;53.590;9.956;2023-03-23T07:43:45;8.38;;;4.38;;
12597;SDS011;6364;53.590;9.956;2023-03-23T07:46:11;8.07;;;5.03;;
12597;SDS011;6364;53.590;9.956;2023-03-23T07:48:37;11.38;;;5.20;;
12597;SDS011;6364;53.590;9.956;2023-03-23T07:51:03;9.30;;;5.03;;
12597;SDS011;6364;53.590;9.956;2023-03-23T07:53:28;10.40;;;5.53;;
12597;SDS011;6364;53.590;9.956;2023-03-23T07:55:54;10.73;;;5.85;;
12597;SDS011;6364;53.590;9.956;2023-03-23T07:58:19;10.52;;;6.10;;
12597;SDS011;6364;53.590;9.956;2023-03-23T08:00:48;8.38;;;6.07;;
12597;SDS011;6364;53.590;9.956;2023-03-23T08:03:13;10.52;;;6.88;;
12597;SDS011;6364;53.590;9.956;2023-03-23T08:05:39;10.50;;;7.35;;
12597;SDS011;6364;53.590;9.956;2023-03-23T08:08:06;8.85;;;6.60;;
12597;SDS011;6364;53.590;9.956;2023-03-23T08:10:32;10.40;;;7.72;;
12597;SDS011;6364;53.590;9.956;2023-03-23T08:12:58;9.48;;;7.53;;
12597;SDS011;6364;53.590;9.956;2023-03-23T08:15:24;10.07;;;7.82;;
12597;SDS011;6364;53.590;9.956;2023-03-23T08:17:51;11.38;;;8.70;;
12597;SDS011;6364;53.590;9.956;2023-03-23T08:20:17;15.43;;;9.02;;
12597;SDS011;6364;53.590;9.956;2023-03-23T08:22:44;20.48;;;9.20;;
12597;SDS011;6364;53.590;9.956;2023-03-23T08:25:12;11.35;;;6.53;;
12597;SDS011;6364;53.590;9.956;2023-03-23T08:27:39;8.27;;;5.28;;
12597;SDS011;6364;53.590;9.956;2023-03-23T08:30:13;6.28;;;4.63;;
12597;SDS011;6364;53.590;9.956;2023-03-23T08:32:40;6.68;;;4.00;;
12597;SDS011;6364;53.590;9.956;2023-03-23T08:35:07;5.28;;;3.95;;
12597;SDS011;6364;53.590;9.956;2023-03-23T08:37:34;5.70;;;3.88;;
12597;SDS011;6364;53.590;9.956;2023-03-23T08:39:59;6.65;;;3.97;;
12597;SDS011;6364;53.590;9.956;2023-03-23T08:42:25;6.20;;;3.60;;
12597;SDS011;6364;53.590;9.956;2023-03-23T08:44:51;5.22;;;3.70;;
12597;SDS011;6364;53.590;9.956;2023-03-23T08:47:16;5.53;;;3.22;;
12597;SDS011;6364;53.590;9.956;2023-03-23T08:49:42;5.88;;;3.22;;
12597;SDS011;6364;53.590;9.956;2023-03-23T08:52:08;6.93;;;2.88;;
12597;SDS011;6364;53.590;9.956;2023-03-23T08:54:34;6.15;;;2.53;;
12597;SDS011;6364;53.590;9.956;2023-03-23T08:57:00;7.22;;;2.85;;
12597;SDS011;6364;53.590;9.956;2023-03-23T08:59:25;9.48;;;2.90;;
12597;SDS011;6364;53.590;9.956;2023-03-23T09:01:51;4.78;;;2.90;;
12597;SDS011;6364;53.590;9.956;2023-03-23T09:04:17;6.13;;;3.35;;
12597;SDS011;6364;53.590;9.956;2023-03-23T09:06:42;12.57;;;3.63;;
12597;SDS011;6364;53.590;9.956;2023-03-23T09:09:08;7.85;;;3.45;;
12597;SDS011;6364;53.590;9.956;2023-03-23T09:11:34;7.05;;;3.33;;
12597;SDS011;6364;53.590;9.956;2023-03-23T09:14:00;8.70;;;3.13;;
12597;SDS011;6364;53.590;9.956;2023-03-23T09:16:26;5.43;;;3.00;;
12597;SDS011;6364;53.590;9.956;2023-03-23T09:18:52;7.47;;;4.20;;
12597;SDS011;6364;53.590;9.956;2023-03-23T09:21:18;8.73;;;3.08;;
12597;SDS011;6364;53.590;9.956;2023-03-23T09:23:43;8.82;;;2.55;;
12597;SDS011;6364;53.590;9.956;2023-03-23T09:26:09;7.03;;;2.70;;
12597;SDS011;6364;53.590;9.956;2023-03-23T09:28:35;10.20;;;2.50;;
12597;SDS011;6364;53.590;9.956;2023-03-23T09:31:00;10.05;;;2.10;;
12597;SDS011;6364;53.590;9.956;2023-03-23T09:33:26;12.27;;;3.15;;
12597;SDS011;6364;53.590;9.956;2023-03-23T09:35:53;7.15;;;2.72;;
12597;SDS011;6364;53.590;9.956;2023-03-23T09:38:19;12.60;;;2.85;;
12597;SDS011;6364;53.590;9.956;2023-03-23T09:46:11;10.00;;;2.28;;
12597;SDS011;6364;53.590;9.956;2023-03-23T09:48:46;8.43;;;2.40;;
12597;SDS011;6364;53.590;9.956;2023-03-23T09:54:10;9.30;;;2.17;;
12597;SDS011;6364;53.590;9.956;2023-03-23T09:56:39;9.38;;;2.20;;
12597;SDS011;6364;53.590;9.956;2023-03-23T10:01:57;10.73;;;2.78;;
12597;SDS011;6364;53.590;9.956;2023-03-23T10:07:14;7.53;;;2.50;;
12597;SDS011;6364;53.590;9.956;2023-03-23T10:09:41;12.38;;;2.92;;
12597;SDS011;6364;53.590;9.956;2023-03-23T10:17:30;9.80;;;2.72;;
12597;SDS011;6364;53.590;9.956;2023-03-23T10:20:05;11.32;;;2.75;;
12597;SDS011;6364;53.590;9.956;2023-03-23T10:22:45;14.00;;;3.28;;
12597;SDS011;6364;53.590;9.956;2023-03-23T10:25:33;9.65;;;2.55;;
12597;SDS011;6364;53.590;9.956;2023-03-23T10:28:17;9.95;;;2.33;;
12597;SDS011;6364;53.590;9.956;2023-03-23T10:33:18;8.90;;;2.50;;
12597;SDS011;6364;53.590;9.956;2023-03-23T10:35:58;13.35;;;3.10;;
12597;SDS011;6364;53.590;9.956;2023-03-23T10:38:29;10.50;;;2.85;;
12597;SDS011;6364;53.590;9.956;2023-03-23T10:41:01;13.30;;;2.53;;
12597;SDS011;6364;53.590;9.956;2023-03-23T10:43:34;12.43;;;2.30;;
12597;SDS011;6364;53.590;9.956;2023-03-23T10:46:01;10.15;;;2.50;;
12597;SDS011;6364;53.590;9.956;2023-03-23T10:48:30;11.27;;;2.80;;
12597;SDS011;6364;53.590;9.956;2023-03-23T10:50:57;16.48;;;3.00;;
12597;SDS011;6364;53.590;9.956;2023-03-23T10:53:28;16.48;;;3.45;;
12597;SDS011;6364;53.590;9.956;2023-03-23T10:55:57;14.80;;;3.65;;
12597;SDS011;6364;53.590;9.956;2023-03-23T10:58:25;12.65;;;3.08;;
12597;SDS011;6364;53.590;9.956;2023-03-23T11:00:50;14.45;;;2.88;;
12597;SDS011;6364;53.590;9.956;2023-03-23T11:08:17;15.70;;;2.90;;
12597;SDS011;6364;53.590;9.956;2023-03-23T11:13:21;12.05;;;2.67;;
12597;SDS011;6364;53.590;9.956;2023-03-23T11:15:50;11.90;;;2.72;;
12597;SDS011;6364;53.590;9.956;2023-03-23T11:18:19;12.55;;;2.72;;
12597;SDS011;6364;53.590;9.956;2023-03-23T11:20:50;12.45;;;2.92;;
12597;SDS011;6364;53.590;9.956;2023-03-23T11:23:23;14.73;;;2.97;;
12597;SDS011;6364;53.590;9.956;2023-03-23T11:28:32;15.40;;;2.85;;
12597;SDS011;6364;53.590;9.956;2023-03-23T11:31:01;11.73;;;2.53;;
12597;SDS011;6364;53.590;9.956;2023-03-23T11:33:29;13.50;;;2.75;;
12597;SDS011;6364;53.590;9.956;2023-03-23T11:35:56;12.05;;;2.63;;
12597;SDS011;6364;53.590;9.956;2023-03-23T11:38:22;12.60;;;3.28;;
12597;SDS011;6364;53.590;9.956;2023-03-23T11:40:50;14.43;;;3.35;;
12597;SDS011;6364;53.590;9.956;2023-03-23T11:43:20;11.88;;;2.78;;
12597;SDS011;6364;53.590;9.956;2023-03-23T11:45:59;13.13;;;2.70;;
12597;SDS011;6364;53.590;9.956;2023-03-23T11:50:54;14.93;;;2.95;;
12597;SDS011;6364;53.590;9.956;2023-03-23T11:58:13;12.07;;;2.97;;
12597;SDS011;6364;53.590;9.956;2023-03-23T12:00:47;20.35;;;3.90;;
12597;SDS011;6364;53.590;9.956;2023-03-23T12:06:28;11.47;;;3.30;;
12597;SDS011;6364;53.590;9.956;2023-03-23T12:11:52;14.88;;;3.38;;
12597;SDS011;6364;53.590;9.956;2023-03-23T12:17:16;15.02;;;3.92;;
12597;SDS011;6364;53.590;9.956;2023-03-23T12:22:48;14.43;;;4.55;;
12597;SDS011;6364;53.590;9.956;2023-03-23T12:25:43;13.40;;;3.55;;
12597;SDS011;6364;53.590;9.956;2023-03-23T12:28:56;8.98;;;3.75;;
12597;SDS011;6364;53.590;9.956;2023-03-23T12:37:19;14.55;;;4.53;;
12597;SDS011;6364;53.590;9.956;2023-03-23T12:48:05;13.65;;;4.28;;
12597;SDS011;6364;53.590;9.956;2023-03-23T12:50:36;19.23;;;5.30;;
12597;SDS011;6364;53.590;9.956;2023-03-23T12:53:11;10.80;;;4.65;;
12597;SDS011;6364;53.590;9.956;2023-03-23T12:58:20;16.02;;;5.30;;
12597;SDS011;6364;53.590;9.956;2023-03-23T13:00:53;12.75;;;5.22;;
12597;SDS011;6364;53.590;9.956;2023-03-23T13:03:28;15.20;;;5.43;;
12597;SDS011;6364;53.590;9.956;2023-03-23T13:06:05;13.02;;;4.85;;
12597;SDS011;6364;53.590;9.956;2023-03-23T13:08:43;13.25;;;4.28;;
12597;SDS011;6364;53.590;9.956;2023-03-23T13:11:34;14.82;;;3.50;;
12597;SDS011;6364;53.590;9.956;2023-03-23T13:16:49;12.70;;;3.70;;
12597;SDS011;6364;53.590;9.956;2023-03-23T13:19:28;9.90;;;3.30;;
12597;SDS011;6364;53.590;9.956;2023-03-23T13:24:27;8.98;;;3.10;;
12597;SDS011;6364;53.590;9.956;2023-03-23T13:26:55;8.88;;;2.97;;
12597;SDS011;6364;53.590;9.956;2023-03-23T13:29:23;8.70;;;2.88;;
12597;SDS011;6364;53.590;9.956;2023-03-23T13:31:50;10.10;;;3.03;;
12597;SDS011;6364;53.590;9.956;2023-03-23T13:34:19;13.40;;;3.63;;
12597;SDS011;6364;53.590;9.956;2023-03-23T13:39:32;11.15;;;3.42;;
12597;SDS011;6364;53.590;9.956;2023-03-23T13:42:23;10.23;;;2.95;;
12597;SDS011;6364;53.590;9.956;2023-03-23T13:49:54;13.25;;;3.85;;
12597;SDS011;6364;53.590;9.956;2023-03-23T13:58:08;3.60;;;1.55;;
12597;SDS011;6364;53.590;9.956;2023-03-23T14:00:46;5.85;;;1.48;;
12597;SDS011;6364;53.590;9.956;2023-03-23T14:03:23;3.13;;;1.30;;
12597;SDS011;6364;53.590;9.956;2023-03-23T14:16:15;9.15;;;2.28;;
12597;SDS011;6364;53.590;9.956;2023-03-23T14:18:47;4.53;;;2.05;;
12597;SDS011;6364;53.590;9.956;2023-03-23T14:21:21;5.38;;;2.42;;
12597;SDS011;6364;53.590;9.956;2023-03-23T14:23:49;7.10;;;3.03;;
12597;SDS011;6364;53.590;9.956;2023-03-23T14:26:16;7.82;;;2.55;;
12597;SDS011;6364;53.590;9.956;2023-03-23T14:28:49;7.45;;;2.30;;
12597;SDS011;6364;53.590;9.956;2023-03-23T14:33:51;6.97;;;3.17;;
12597;SDS011;6364;53.590;9.956;2023-03-23T14:36:22;7.72;;;2.47;;
12597;SDS011;6364;53.590;9.956;2023-03-23T14:38:48;9.30;;;2.70;;
12597;SDS011;6364;53.590;9.956;2023-03-23T14:41:19;9.73;;;2.78;;
12597;SDS011;6364;53.590;9.956;2023-03-23T14:43:44;7.65;;;2.63;;
12597;SDS011;6364;53.590;9.956;2023-03-23T14:46:10;5.47;;;2.20;;
12597;SDS011;6364;53.590;9.956;2023-03-23T14:48:37;7.78;;;2.03;;
12597;SDS011;6364;53.590;9.956;2023-03-23T14:51:04;5.47;;;2.13;;
12597;SDS011;6364;53.590;9.956;2023-03-23T14:53:33;6.88;;;2.40;;
12597;SDS011;6364;53.590;9.956;2023-03-23T14:56:03;8.57;;;2.25;;
12597;SDS011;6364;53.590;9.956;2023-03-23T14:58:34;8.27;;;2.70;;
12597;SDS011;6364;53.590;9.956;2023-03-23T15:01:01;5.60;;;1.85;;
12597;SDS011;6364;53.590;9.956;2023-03-23T15:03:32;5.75;;;2.00;;
12597;SDS011;6364;53.590;9.956;2023-03-23T15:06:01;5.13;;;1.92;;
12597;SDS011;6364;53.590;9.956;2023-03-23T15:08:30;4.97;;;1.75;;
12597;SDS011;6364;53.590;9.956;2023-03-23T15:13:49;5.28;;;2.20;;
12597;SDS011;6364;53.590;9.956;2023-03-23T15:16:23;5.55;;;2.22;;
12597;SDS011;6364;53.590;9.956;2023-03-23T15:18:55;8.90;;;2.30;;
12597;SDS011;6364;53.590;9.956;2023-03-23T15:21:32;7.93;;;2.10;;
12597;SDS011;6364;53.590;9.956;2023-03-23T15:24:00;8.60;;;2.22;;
12597;SDS011;6364;53.590;9.956;2023-03-23T15:29:10;5.55;;;2.30;;
12597;SDS011;6364;53.590;9.956;2023-03-23T15:31:41;6.82;;;2.83;;
12597;SDS011;6364;53.590;9.956;2023-03-23T15:34:10;6.07;;;2.00;;
12597;SDS011;6364;53.590;9.956;2023-03-23T15:36:38;9.85;;;2.53;;
12597;SDS011;6364;53.590;9.956;2023-03-23T15:39:03;6.43;;;2.28;;
12597;SDS011;6364;53.590;9.956;2023-03-23T15:41:31;7.55;;;3.20;;
12597;SDS011;6364;53.590;9.956;2023-03-23T15:44:09;8.30;;;2.85;;
12597;SDS011;6364;53.590;9.956;2023-03-23T15:46:46;10.48;;;3.05;;
12597;SDS011;6364;53.590;9.956;2023-03-23T15:49:13;8.80;;;2.83;;
12597;SDS011;6364;53.590;9.956;2023-03-23T15:51:40;10.02;;;3.42;;
12597;SDS011;6364;53.590;9.956;2023-03-23T15:54:08;10.32;;;3.40;;
12597;SDS011;6364;53.590;9.956;2023-03-23T15:56:37;7.60;;;2.63;;
12597;SDS011;6364;53.590;9.956;2023-03-23T15:59:02;10.93;;;2.40;;
12597;SDS011;6364;53.590;9.956;2023-03-23T16:01:28;8.63;;;2.70;;
12597;SDS011;6364;53.590;9.956;2023-03-23T16:03:55;11.27;;;2.75;;
12597;SDS011;6364;53.590;9.956;2023-03-23T16:06:42;9.45;;;2.78;;
12597;SDS011;6364;53.590;9.956;2023-03-23T16:09:10;8.68;;;2.70;;
12597;SDS011;6364;53.590;9.956;2023-03-23T16:11:38;7.30;;;2.17;;
12597;SDS011;6364;53.590;9.956;2023-03-23T16:14:03;8.02;;;2.53;;
12597;SDS011;6364;53.590;9.956;2023-03-23T16:16:42;5.90;;;2.70;;
12597;SDS011;6364;53.590;9.956;2023-03-23T16:19:12;12.50;;;3.47;;
12597;SDS011;6364;53.590;9.956;2023-03-23T16:21:38;15.77;;;3.97;;
12597;SDS011;6364;53.590;9.956;2023-03-23T16:24:04;14.65;;;5.35;;
12597;SDS011;6364;53.590;9.956;2023-03-23T16:26:30;12.15;;;3.55;;
12597;SDS011;6364;53.590;9.956;2023-03-23T16:28:55;9.25;;;4.90;;
12597;SDS011;6364;53.590;9.956;2023-03-23T16:31:20;10.00;;;3.20;;
12597;SDS011;6364;53.590;9.956;2023-03-23T16:33:46;8.32;;;3.08;;
12597;SDS011;6364;53.590;9.956;2023-03-23T16:36:12;8.43;;;3.50;;
12597;SDS011;6364;53.590;9.956;2023-03-23T16:38:37;10.40;;;3.45;;
12597;SDS011;6364;53.590;9.956;2023-03-23T16:41:03;7.03;;;2.90;;
12597;SDS011;6364;53.590;9.956;2023-03-23T16:43:29;7.07;;;3.03;;
12597;SDS011;6364;53.590;9.956;2023-03-23T16:45:55;7.70;;;2.90;;
12597;SDS011;6364;53.590;9.956;2023-03-23T16:48:21;8.82;;;3.10;;
12597;SDS011;6364;53.590;9.956;2023-03-23T16:50:46;8.32;;;3.03;;
12597;SDS011;6364;53.590;9.956;2023-03-23T16:53:12;8.68;;;2.83;;
12597;SDS011;6364;53.590;9.956;2023-03-23T16:55:37;8.25;;;2.55;;
12597;SDS011;6364;53.590;9.956;2023-03-23T16:58:03;9.82;;;2.97;;